createdAt,value
2023-02-07T00:01:42.925Z,2.76
2023-02-07T00:04:11.381Z,2.91
2023-02-07T00:06:41.749Z,2.79
2023-02-07T00:09:14.647Z,2.54
2023-02-07T00:11:43.466Z,2.55
2023-02-07T00:14:14.057Z,2.50
2023-02-07T00:16:43.475Z,2.48
2023-02-07T00:19:12.162Z,2.34
2023-02-07T00:21:41.594Z,2.29
2023-02-07T00:24:09.632Z,2.48
2023-02-07T00:26:37.544Z,2.38
2023-02-07T00:29:05.931Z,2.15
2023-02-07T00:31:36.263Z,2.28
2023-02-07T00:34:06.839Z,2.40
2023-02-07T00:36:36.218Z,2.31
2023-02-07T00:39:08.338Z,2.35
2023-02-07T00:41:36.354Z,2.31
2023-02-07T00:44:04.698Z,2.41
2023-02-07T00:46:32.726Z,2.64
2023-02-07T00:49:00.604Z,2.46
2023-02-07T00:51:28.597Z,2.36
2023-02-07T00:53:57.008Z,2.36
2023-02-07T00:56:28.680Z,2.35
2023-02-07T00:58:58.917Z,2.13
2023-02-07T01:01:27.465Z,2.16
2023-02-07T01:03:57.914Z,1.98
2023-02-07T01:06:25.895Z,2.10
2023-02-07T01:08:57.661Z,2.00
2023-02-07T01:11:27.255Z,1.74
2023-02-07T01:13:55.256Z,2.32
2023-02-07T01:16:25.360Z,2.31
2023-02-07T01:18:53.190Z,1.65
2023-02-07T01:21:22.913Z,1.97
2023-02-07T01:23:51.311Z,2.10
2023-02-07T01:26:19.296Z,1.62
2023-02-07T01:28:48.406Z,1.43
2023-02-07T01:31:16.417Z,1.18
2023-02-07T01:33:44.189Z,1.31
2023-02-07T01:36:14.619Z,1.35
2023-02-07T01:38:43.073Z,1.25
2023-02-07T01:41:11.477Z,1.58
2023-02-07T01:43:57.063Z,1.26
2023-02-07T01:46:25.455Z,1.25
2023-02-07T01:48:55.435Z,1.31
2023-02-07T01:51:24.443Z,1.35
2023-02-07T01:53:57.192Z,1.41
2023-02-07T01:56:32.032Z,1.52
2023-02-07T01:59:05.529Z,1.80
2023-02-07T02:01:33.751Z,1.73
2023-02-07T02:04:02.003Z,1.68
2023-02-07T02:06:32.931Z,1.66
2023-02-07T02:09:02.485Z,1.60
2023-02-07T02:11:55.012Z,1.59
2023-02-07T02:14:38.269Z,1.72
2023-02-07T02:17:11.359Z,1.45
2023-02-07T02:20:23.820Z,1.55
2023-02-07T02:23:05.575Z,1.73
2023-02-07T02:26:11.646Z,1.61
2023-02-07T02:29:23.322Z,1.76
2023-02-07T02:32:15.341Z,1.68
2023-02-07T02:34:51.363Z,1.77
2023-02-07T02:37:27.940Z,1.63
2023-02-07T02:40:05.573Z,1.67
2023-02-07T02:42:39.210Z,1.54
2023-02-07T02:45:14.381Z,1.74
2023-02-07T02:47:46.695Z,1.72
2023-02-07T02:50:20.193Z,1.82
2023-02-07T02:52:51.138Z,1.77
2023-02-07T02:55:34.254Z,1.82
2023-02-07T02:58:12.448Z,1.82
2023-02-07T03:00:56.593Z,1.69
2023-02-07T03:03:40.936Z,1.55
2023-02-07T03:06:22.623Z,1.58
2023-02-07T03:08:58.769Z,1.58
2023-02-07T03:11:27.942Z,1.58
2023-02-07T03:14:01.365Z,1.50
2023-02-07T03:16:35.325Z,1.36
2023-02-07T03:19:09.025Z,1.82
2023-02-07T03:21:42.382Z,1.77
2023-02-07T03:24:14.905Z,1.48
2023-02-07T03:26:45.630Z,1.49
2023-02-07T03:29:16.578Z,1.62
2023-02-07T03:31:49.152Z,1.53
2023-02-07T03:34:19.197Z,1.35
2023-02-07T03:36:56.160Z,1.43
2023-02-07T03:39:24.314Z,1.38
2023-02-07T03:41:56.529Z,1.27
2023-02-07T03:44:27.029Z,1.26
2023-02-07T03:46:55.554Z,1.19
2023-02-07T03:49:23.430Z,1.21
2023-02-07T03:51:53.232Z,1.33
2023-02-07T03:54:21.385Z,1.22
2023-02-07T03:56:49.121Z,1.38
2023-02-07T03:59:16.814Z,1.43
2023-02-07T04:01:44.536Z,1.37
2023-02-07T04:04:13.087Z,1.23
2023-02-07T04:06:40.760Z,1.34
2023-02-07T04:09:11.757Z,1.30
2023-02-07T04:11:40.141Z,1.47
2023-02-07T04:14:07.850Z,1.27
2023-02-07T04:16:35.577Z,1.17
2023-02-07T04:19:03.290Z,1.13
2023-02-07T04:21:31.013Z,1.05
2023-02-07T04:23:58.729Z,1.06
2023-02-07T04:26:27.771Z,1.23
2023-02-07T04:28:55.558Z,1.04
2023-02-07T04:31:23.430Z,1.18
2023-02-07T04:33:51.152Z,1.19
2023-02-07T04:36:18.919Z,1.12
2023-02-07T04:38:46.680Z,1.33
2023-02-07T04:41:14.395Z,1.29
2023-02-07T04:43:43.719Z,1.10
2023-02-07T04:46:11.502Z,1.08
2023-02-07T04:48:39.278Z,1.13
2023-02-07T04:51:07.761Z,1.08
2023-02-07T04:53:35.572Z,0.89
2023-02-07T04:56:04.628Z,0.75
2023-02-07T04:58:32.415Z,0.76
2023-02-07T05:01:01.514Z,0.71
2023-02-07T05:03:29.352Z,0.91
2023-02-07T05:05:57.181Z,0.64
2023-02-07T05:08:26.257Z,0.64
2023-02-07T05:10:55.202Z,0.40
2023-02-07T05:13:23.948Z,0.44
2023-02-07T05:15:52.008Z,0.53
2023-02-07T05:18:21.905Z,0.58
2023-02-07T05:20:52.307Z,0.48
2023-02-07T05:23:20.214Z,0.26
2023-02-07T05:25:48.744Z,0.11
2023-02-07T05:28:16.920Z,0.28
2023-02-07T05:30:44.909Z,0.30
2023-02-07T05:33:12.044Z,0.54
2023-02-07T05:35:42.816Z,0.37
2023-02-07T05:38:13.442Z,0.64
2023-02-07T05:40:42.450Z,0.28
2023-02-07T05:43:11.129Z,0.35
2023-02-07T05:45:39.442Z,0.33
2023-02-07T05:48:07.910Z,0.35
2023-02-07T05:50:35.957Z,0.39
2023-02-07T05:53:09.087Z,0.52
2023-02-07T05:55:37.531Z,0.41
2023-02-07T05:58:05.605Z,0.50
2023-02-07T06:00:33.536Z,0.43
2023-02-07T06:03:01.314Z,0.52
2023-02-07T06:05:31.780Z,0.35
2023-02-07T06:08:00.364Z,0.37
2023-02-07T06:10:29.435Z,0.31
2023-02-07T06:12:57.292Z,0.25
2023-02-07T06:15:25.227Z,0.32
2023-02-07T06:17:53.000Z,0.27
2023-02-07T06:20:21.091Z,0.42
2023-02-07T06:22:48.860Z,0.60
2023-02-07T06:25:16.724Z,0.62
2023-02-07T06:27:45.905Z,0.69
2023-02-07T06:30:14.278Z,0.55
2023-02-07T06:32:42.047Z,0.42
2023-02-07T06:35:10.469Z,0.46
2023-02-07T06:37:38.319Z,0.56
2023-02-07T06:40:06.802Z,0.33
2023-02-07T06:42:34.543Z,0.33
2023-02-07T06:45:03.672Z,0.47
2023-02-07T06:47:31.432Z,0.77
2023-02-07T06:49:59.201Z,0.58
2023-02-07T06:52:26.996Z,0.48
2023-02-07T06:54:54.812Z,0.41
2023-02-07T06:57:22.598Z,0.82
2023-02-07T06:59:50.436Z,0.42
2023-02-07T07:02:19.597Z,0.71
2023-02-07T07:04:47.507Z,0.70
2023-02-07T07:07:15.304Z,0.84
2023-02-07T07:09:43.088Z,0.80
2023-02-07T07:12:10.963Z,0.80
2023-02-07T07:14:38.829Z,0.69
2023-02-07T07:17:06.651Z,0.67
2023-02-07T07:19:35.789Z,0.84
2023-02-07T07:22:03.767Z,0.82
2023-02-07T07:24:31.536Z,0.82
2023-02-07T07:26:59.385Z,0.75
2023-02-07T07:29:27.238Z,0.65
2023-02-07T07:31:55.117Z,0.79
2023-02-07T07:34:22.950Z,1.00
2023-02-07T07:36:53.774Z,1.09
2023-02-07T07:39:21.754Z,0.89
2023-02-07T07:41:49.550Z,0.82
2023-02-07T07:44:35.729Z,0.96
2023-02-07T07:47:04.013Z,1.42
2023-02-07T07:49:31.829Z,1.45
2023-02-07T07:52:01.145Z,1.51
2023-02-07T07:54:30.211Z,1.61
2023-02-07T07:56:59.031Z,1.64
2023-02-07T07:59:26.961Z,1.25
2023-02-07T08:01:55.341Z,1.24
2023-02-07T08:04:23.147Z,1.25
2023-02-07T08:06:50.930Z,1.79
2023-02-07T08:09:20.088Z,1.26
2023-02-07T08:11:48.019Z,1.55
2023-02-07T08:14:15.881Z,1.68
2023-02-07T08:16:43.691Z,1.53
2023-02-07T08:19:11.439Z,1.44
2023-02-07T08:21:39.282Z,1.75
2023-02-07T08:24:07.553Z,2.07
2023-02-07T08:26:36.933Z,1.71
2023-02-07T08:29:05.095Z,1.72
2023-02-07T08:31:33.124Z,1.51
2023-02-07T08:34:04.524Z,2.01
2023-02-07T08:36:32.397Z,2.20
2023-02-07T08:39:00.505Z,2.17
2023-02-07T08:41:28.391Z,1.96
2023-02-07T08:43:58.512Z,2.17
2023-02-07T08:46:27.061Z,2.16
2023-02-07T08:48:54.903Z,2.34
2023-02-07T08:51:22.899Z,2.36
2023-02-07T08:53:50.839Z,2.24
2023-02-07T08:56:18.650Z,2.36
2023-02-07T08:58:46.668Z,2.58
2023-02-07T09:01:15.921Z,2.25
2023-02-07T09:03:43.864Z,2.65
2023-02-07T09:06:11.887Z,2.60
2023-02-07T09:08:39.700Z,2.78
2023-02-07T09:11:10.443Z,2.78
2023-02-07T09:13:38.245Z,2.64
2023-02-07T09:16:06.557Z,2.83
2023-02-07T09:18:36.126Z,2.76
2023-02-07T09:21:06.732Z,2.70
2023-02-07T09:23:35.798Z,2.66
2023-02-07T09:26:05.768Z,3.26
2023-02-07T09:28:34.337Z,3.00
2023-02-07T09:31:07.777Z,3.35
2023-02-07T09:33:37.094Z,2.42
2023-02-07T09:36:05.955Z,2.63
2023-02-07T09:38:33.938Z,2.91
2023-02-07T09:41:01.772Z,2.67
2023-02-07T09:43:43.136Z,2.60
2023-02-07T09:46:20.456Z,2.83
2023-02-07T09:48:55.409Z,2.79
2023-02-07T09:51:25.175Z,2.62
2023-02-07T09:53:58.701Z,2.76
2023-02-07T09:56:29.236Z,3.45
2023-02-07T09:59:03.469Z,3.09
2023-02-07T10:01:37.115Z,3.43
2023-02-07T10:04:29.210Z,3.47
2023-02-07T10:07:00.034Z,3.42
2023-02-07T10:09:31.090Z,3.86
2023-02-07T10:12:05.596Z,4.18
2023-02-07T10:14:46.687Z,4.42
2023-02-07T10:17:32.253Z,4.54
2023-02-07T10:20:14.963Z,4.58
2023-02-07T10:22:55.109Z,3.38
2023-02-07T10:25:35.464Z,3.23
2023-02-07T10:28:22.671Z,3.21
2023-02-07T10:30:53.927Z,3.37
2023-02-07T10:33:25.274Z,3.53
2023-02-07T10:35:55.592Z,4.89
2023-02-07T10:38:31.023Z,6.21
2023-02-07T10:41:03.990Z,7.77
2023-02-07T10:43:34.290Z,8.65
2023-02-07T10:46:06.772Z,8.28
2023-02-07T10:48:35.144Z,7.99
2023-02-07T10:51:05.780Z,7.51
2023-02-07T10:53:54.181Z,5.18
2023-02-07T10:56:25.343Z,4.34
2023-02-07T10:58:54.188Z,4.73
2023-02-07T11:01:24.930Z,4.93
2023-02-07T11:03:53.795Z,5.91
2023-02-07T11:06:27.980Z,5.25
2023-02-07T11:09:14.905Z,4.54
2023-02-07T11:11:44.003Z,4.59
2023-02-07T11:14:18.606Z,5.11
2023-02-07T11:16:46.992Z,6.11
2023-02-07T11:19:20.527Z,6.08
2023-02-07T11:21:51.361Z,6.43
2023-02-07T11:24:23.645Z,6.64
2023-02-07T11:26:57.739Z,6.59
2023-02-07T11:29:27.041Z,5.79
2023-02-07T11:31:59.749Z,5.01
2023-02-07T11:34:40.781Z,5.35
2023-02-07T11:37:23.909Z,4.96
2023-02-07T11:39:55.415Z,5.63
2023-02-07T11:42:25.249Z,5.96
2023-02-07T11:44:53.725Z,5.99
2023-02-07T11:47:25.485Z,6.02
2023-02-07T11:49:58.189Z,5.80
2023-02-07T11:52:29.423Z,5.33
2023-02-07T11:55:00.809Z,5.85
2023-02-07T11:57:32.091Z,5.83
2023-02-07T12:00:08.103Z,5.66
2023-02-07T12:02:41.994Z,6.71
2023-02-07T12:05:19.343Z,6.23
2023-02-07T12:07:52.035Z,6.32
2023-02-07T12:10:26.830Z,6.41
2023-02-07T12:12:59.804Z,6.52
2023-02-07T12:15:33.829Z,6.50
2023-02-07T12:18:06.032Z,7.34
2023-02-07T12:20:36.281Z,6.89
2023-02-07T12:23:39.254Z,7.35
2023-02-07T12:26:03.268Z,7.51
2023-02-07T12:28:37.424Z,6.79
2023-02-07T12:31:15.964Z,6.79
2023-02-07T12:33:51.909Z,7.03
2023-02-07T12:36:24.996Z,7.64
2023-02-07T12:38:59.704Z,7.43
2023-02-07T12:41:32.649Z,7.66
2023-02-07T12:44:11.157Z,7.51
2023-02-07T12:46:51.108Z,7.59
2023-02-07T12:49:38.360Z,7.50
2023-02-07T12:52:21.230Z,7.67
2023-02-07T12:55:03.585Z,7.30
2023-02-07T12:57:38.920Z,7.33
2023-02-07T13:00:15.479Z,7.39
2023-02-07T13:02:57.071Z,7.90
2023-02-07T13:05:57.224Z,7.70
2023-02-07T13:08:36.451Z,7.73
2023-02-07T13:11:17.828Z,7.17
2023-02-07T13:13:56.498Z,7.22
2023-02-07T13:16:35.862Z,7.40
2023-02-07T13:19:12.693Z,6.89
2023-02-07T13:21:45.280Z,6.87
2023-02-07T13:24:16.888Z,7.50
2023-02-07T13:26:52.756Z,7.13
2023-02-07T13:29:22.996Z,6.97
2023-02-07T13:31:54.523Z,7.46
2023-02-07T13:34:26.262Z,7.34
2023-02-07T13:36:55.283Z,7.71
2023-02-07T13:39:39.833Z,7.82
2023-02-07T13:42:18.827Z,7.79
2023-02-07T13:44:57.246Z,8.02
2023-02-07T13:47:44.874Z,7.81
2023-02-07T13:50:23.230Z,7.25
2023-02-07T13:52:59.796Z,6.86
2023-02-07T13:55:34.022Z,6.49
2023-02-07T13:58:20.757Z,6.78
2023-02-07T14:01:09.997Z,6.89
2023-02-07T14:03:38.150Z,6.74
2023-02-07T14:06:28.416Z,6.45
2023-02-07T14:09:03.328Z,6.85
2023-02-07T14:11:44.112Z,6.85
2023-02-07T14:14:25.324Z,6.99
2023-02-07T14:16:55.311Z,6.66
2023-02-07T14:19:54.264Z,6.75
2023-02-07T14:22:25.246Z,7.28
2023-02-07T14:25:25.963Z,6.88
2023-02-07T14:28:25.263Z,6.61
2023-02-07T14:31:21.825Z,6.79
2023-02-07T14:34:11.710Z,6.67
2023-02-07T14:36:39.641Z,6.67
2023-02-07T14:39:29.715Z,6.42
2023-02-07T14:42:11.032Z,6.67
2023-02-07T14:44:41.552Z,6.55
2023-02-07T14:47:22.023Z,6.57
2023-02-07T14:49:51.831Z,6.24
2023-02-07T14:52:24.283Z,6.31
2023-02-07T14:54:56.321Z,6.37
2023-02-07T14:57:37.134Z,6.36
2023-02-07T15:00:22.817Z,6.83
2023-02-07T15:02:55.049Z,6.47
2023-02-07T15:05:25.818Z,6.57
2023-02-07T15:08:07.715Z,6.39
2023-02-07T15:10:43.081Z,6.06
2023-02-07T15:13:22.454Z,6.02
2023-02-07T15:15:54.507Z,6.35
2023-02-07T15:18:26.173Z,6.07
2023-02-07T15:20:58.161Z,5.84
2023-02-07T15:23:28.690Z,5.83
2023-02-07T15:25:56.760Z,5.79
2023-02-07T15:28:27.835Z,5.93
2023-02-07T15:30:58.116Z,5.85
2023-02-07T15:33:29.977Z,5.84
2023-02-07T15:35:57.803Z,6.27
2023-02-07T15:38:27.441Z,6.24
2023-02-07T15:40:56.088Z,5.61
2023-02-07T15:43:27.703Z,5.36
2023-02-07T15:46:04.298Z,5.48
2023-02-07T15:48:34.404Z,5.24
2023-02-07T15:51:06.211Z,5.48
2023-02-07T15:53:34.398Z,5.49
2023-02-07T15:56:06.505Z,5.39
2023-02-07T15:58:36.793Z,5.43
2023-02-07T16:01:08.355Z,5.49
2023-02-07T16:03:44.081Z,5.13
2023-02-07T16:06:17.834Z,5.10
2023-02-07T16:08:46.787Z,4.93
2023-02-07T16:11:19.430Z,5.31
2023-02-07T16:13:52.807Z,5.30
2023-02-07T16:16:24.908Z,5.04
2023-02-07T16:19:06.366Z,5.29
2023-02-07T16:21:36.056Z,5.10
2023-02-07T16:24:07.678Z,4.98
2023-02-07T16:26:37.427Z,4.64
2023-02-07T16:29:06.628Z,4.77
2023-02-07T16:31:35.433Z,4.72
2023-02-07T16:34:04.708Z,4.90
2023-02-07T16:36:32.544Z,5.13
2023-02-07T16:39:00.486Z,4.87
2023-02-07T16:41:32.042Z,4.77
2023-02-07T16:44:01.113Z,4.74
2023-02-07T16:46:29.946Z,4.73
2023-02-07T16:48:57.827Z,4.81
2023-02-07T16:51:27.032Z,4.59
2023-02-07T16:53:55.279Z,4.58
2023-02-07T16:56:27.178Z,4.52
2023-02-07T16:58:55.083Z,4.45
2023-02-07T17:01:23.583Z,4.43
2023-02-07T17:03:51.404Z,4.37
2023-02-07T17:06:21.410Z,4.28
2023-02-07T17:08:56.704Z,4.37
2023-02-07T17:11:26.133Z,4.63
2023-02-07T17:13:54.133Z,4.60
2023-02-07T17:16:22.163Z,4.57
2023-02-07T17:18:50.524Z,4.33
2023-02-07T17:21:18.741Z,4.40
2023-02-07T17:23:48.982Z,4.36
2023-02-07T17:26:23.320Z,4.23
2023-02-07T17:28:51.359Z,4.10
2023-02-07T17:31:19.365Z,4.29
2023-02-07T17:33:47.258Z,4.34
2023-02-07T17:36:16.792Z,4.13
2023-02-07T17:38:45.051Z,4.00
2023-02-07T17:41:13.861Z,3.97
2023-02-07T17:43:43.448Z,4.07
2023-02-07T17:46:16.567Z,4.21
2023-02-07T17:48:46.631Z,4.10
2023-02-07T17:51:14.695Z,4.29
2023-02-07T17:53:42.461Z,4.23
2023-02-07T17:56:17.786Z,4.04
2023-02-07T17:58:46.880Z,4.12
2023-02-07T18:01:19.092Z,4.16
2023-02-07T18:03:47.232Z,3.99
2023-02-07T18:06:16.625Z,3.84
2023-02-07T18:08:45.188Z,3.82
2023-02-07T18:11:14.287Z,3.80
2023-02-07T18:13:43.433Z,3.90
2023-02-07T18:16:14.901Z,3.74
2023-02-07T18:18:42.715Z,3.74
2023-02-07T18:21:12.602Z,3.62
2023-02-07T18:23:42.804Z,3.59
2023-02-07T18:26:11.300Z,3.63
2023-02-07T18:28:39.077Z,3.63
2023-02-07T18:31:11.003Z,3.52
2023-02-07T18:33:40.155Z,3.48
2023-02-07T18:36:09.415Z,3.37
2023-02-07T18:38:37.724Z,3.44
2023-02-07T18:41:10.025Z,3.45
2023-02-07T18:43:38.564Z,3.41
2023-02-07T18:46:10.332Z,3.16
2023-02-07T18:48:38.564Z,3.08
2023-02-07T18:51:10.318Z,3.07
2023-02-07T18:53:38.832Z,2.85
2023-02-07T18:56:08.396Z,2.80
2023-02-07T18:58:36.266Z,2.86
2023-02-07T19:01:05.333Z,3.08
2023-02-07T19:03:33.637Z,3.14
2023-02-07T19:06:03.110Z,3.36
2023-02-07T19:08:32.313Z,3.28
2023-02-07T19:11:02.743Z,3.08
2023-02-07T19:13:31.198Z,3.12
2023-02-07T19:16:04.584Z,2.93
2023-02-07T19:18:32.827Z,2.83
2023-02-07T19:21:05.291Z,3.02
2023-02-07T19:23:34.946Z,3.01
2023-02-07T19:26:03.244Z,3.15
2023-02-07T19:28:32.346Z,3.27
2023-02-07T19:31:03.264Z,2.86
2023-02-07T19:33:31.286Z,2.86
2023-02-07T19:36:06.225Z,2.87
2023-02-07T19:38:35.739Z,3.10
2023-02-07T19:41:04.344Z,2.92
2023-02-07T19:43:32.817Z,2.81
2023-02-07T19:46:00.788Z,2.64
2023-02-07T19:48:28.697Z,2.63
2023-02-07T19:51:00.632Z,2.83
2023-02-07T19:53:30.019Z,2.97
2023-02-07T19:56:03.184Z,2.82
2023-02-07T19:58:31.327Z,2.84
2023-02-07T20:01:00.181Z,2.82
2023-02-07T20:03:28.975Z,2.67
2023-02-07T20:06:00.264Z,2.78
2023-02-07T20:08:28.766Z,2.59
2023-02-07T20:10:56.432Z,2.75
2023-02-07T20:13:25.554Z,2.47
2023-02-07T20:15:53.393Z,2.45
2023-02-07T20:18:21.321Z,2.37
2023-02-07T20:20:49.361Z,2.24
2023-02-07T20:23:17.500Z,2.11
2023-02-07T20:25:45.278Z,2.11
2023-02-07T20:28:13.377Z,2.07
2023-02-07T20:30:46.612Z,2.28
2023-02-07T20:33:14.491Z,2.50
2023-02-07T20:35:42.395Z,2.33
2023-02-07T20:38:10.403Z,2.44
2023-02-07T20:40:38.629Z,2.35
2023-02-07T20:43:06.507Z,2.47
2023-02-07T20:45:34.459Z,2.47
2023-02-07T20:48:03.708Z,2.24
2023-02-07T20:50:31.556Z,2.15
2023-02-07T20:53:10.241Z,2.27
2023-02-07T20:55:38.107Z,2.08
2023-02-07T20:58:05.965Z,1.95
2023-02-07T21:00:33.800Z,2.03
2023-02-07T21:03:03.086Z,2.08
2023-02-07T21:05:32.031Z,2.10
2023-02-07T21:07:59.832Z,2.30
2023-02-07T21:10:28.075Z,2.37
2023-02-07T21:12:56.090Z,2.25
2023-02-07T21:15:24.255Z,2.26
2023-02-07T21:17:52.248Z,2.15
2023-02-07T21:20:21.418Z,2.15
2023-02-07T21:22:49.406Z,2.14
2023-02-07T21:25:17.463Z,2.09
2023-02-07T21:27:45.297Z,2.14
2023-02-07T21:30:13.795Z,2.21
2023-02-07T21:32:41.548Z,2.24
2023-02-07T21:35:09.703Z,2.09
2023-02-07T21:37:38.926Z,1.80
2023-02-07T21:40:07.945Z,1.85
2023-02-07T21:42:35.844Z,2.17
2023-02-07T21:45:04.156Z,2.20
2023-02-07T21:47:31.911Z,2.34
2023-02-07T21:49:59.651Z,2.30
2023-02-07T21:52:27.440Z,2.03
2023-02-07T21:54:56.609Z,1.99
2023-02-07T21:57:24.371Z,1.81
2023-02-07T21:59:52.157Z,1.88
2023-02-07T22:02:20.407Z,1.92
2023-02-07T22:04:48.343Z,1.73
2023-02-07T22:07:16.247Z,1.69
2023-02-07T22:09:44.091Z,1.77
2023-02-07T22:12:13.448Z,1.49
2023-02-07T22:14:41.499Z,1.74
2023-02-07T22:17:10.213Z,1.82
2023-02-07T22:19:38.065Z,1.70
2023-02-07T22:22:05.841Z,1.74
2023-02-07T22:24:33.733Z,1.61
2023-02-07T22:27:01.603Z,1.69
2023-02-07T22:29:30.821Z,1.78
2023-02-07T22:31:58.947Z,1.49
2023-02-07T22:34:26.976Z,1.74
2023-02-07T22:36:54.810Z,1.47
2023-02-07T22:39:22.816Z,1.28
2023-02-07T22:41:50.587Z,1.27
2023-02-07T22:44:18.384Z,1.30
2023-02-07T22:46:47.482Z,1.43
2023-02-07T22:49:15.308Z,1.67
2023-02-07T22:51:43.269Z,1.53
2023-02-07T22:54:15.512Z,1.57
2023-02-07T22:56:44.997Z,1.35
2023-02-07T22:59:13.681Z,1.23
2023-02-07T23:01:42.597Z,1.52
2023-02-07T23:04:17.305Z,1.56
2023-02-07T23:06:45.471Z,1.39
2023-02-07T23:09:13.604Z,1.35
2023-02-07T23:11:41.386Z,1.30
2023-02-07T23:14:09.135Z,1.21
2023-02-07T23:16:38.258Z,1.04
2023-02-07T23:19:09.001Z,1.25
2023-02-07T23:21:38.123Z,1.31
2023-02-07T23:24:06.382Z,1.31
2023-02-07T23:26:34.455Z,1.43
2023-02-07T23:29:02.175Z,1.24
2023-02-07T23:31:30.655Z,1.28
2023-02-07T23:33:58.681Z,1.05
2023-02-07T23:36:27.059Z,1.11
2023-02-07T23:38:56.258Z,0.96
2023-02-07T23:41:24.064Z,0.91
2023-02-07T23:43:51.876Z,1.09
2023-02-07T23:46:20.228Z,1.30
2023-02-07T23:48:48.119Z,0.87
2023-02-07T23:51:16.705Z,0.86
2023-02-07T23:53:45.441Z,0.84
2023-02-07T23:56:17.748Z,0.83
2023-02-07T23:58:46.073Z,0.90
